createdAt,value
2022-10-22T00:00:12.429Z,0.93
2022-10-22T00:02:44.274Z,0.70
2022-10-22T00:05:16.799Z,0.80
2022-10-22T00:07:48.921Z,1.23
2022-10-22T00:10:20.966Z,1.20
2022-10-22T00:12:52.759Z,1.10
2022-10-22T00:15:24.590Z,0.87
2022-10-22T00:17:56.611Z,1.00
2022-10-22T00:20:28.479Z,1.03
2022-10-22T00:23:00.361Z,1.00
2022-10-22T00:25:32.436Z,0.83
2022-10-22T00:28:04.286Z,0.90
2022-10-22T00:30:36.131Z,1.43
2022-10-22T00:33:07.899Z,0.80
2022-10-22T00:35:40.196Z,0.83
2022-10-22T00:38:12.030Z,0.93
2022-10-22T00:40:43.966Z,0.70
2022-10-22T00:43:15.737Z,1.47
2022-10-22T00:45:47.565Z,1.07
2022-10-22T00:48:19.349Z,1.10
2022-10-22T00:50:51.156Z,1.10
2022-10-22T00:53:23.068Z,1.43
2022-10-22T00:55:54.872Z,0.93
2022-10-22T00:58:26.755Z,0.90
2022-10-22T01:00:58.610Z,0.90
2022-10-22T01:03:30.503Z,1.40
2022-10-22T01:06:02.306Z,0.57
2022-10-22T01:08:34.163Z,1.37
2022-10-22T01:11:06.249Z,1.00
2022-10-22T01:13:38.033Z,0.80
2022-10-22T01:16:09.840Z,1.00
2022-10-22T01:18:41.646Z,1.00
2022-10-22T01:21:13.467Z,0.83
2022-10-22T01:23:45.265Z,1.10
2022-10-22T01:26:17.321Z,1.07
2022-10-22T01:28:49.277Z,1.43
2022-10-22T01:31:21.076Z,0.90
2022-10-22T01:33:53.057Z,0.93
2022-10-22T01:36:24.876Z,0.97
2022-10-22T01:38:56.674Z,1.13
2022-10-22T01:41:28.538Z,1.10
2022-10-22T01:44:00.281Z,1.13
2022-10-22T01:46:32.093Z,0.77
2022-10-22T01:49:03.967Z,1.00
2022-10-22T01:51:35.778Z,1.10
2022-10-22T01:54:07.587Z,1.00
2022-10-22T01:56:39.371Z,1.20
2022-10-22T01:59:11.205Z,0.93
2022-10-22T02:01:43.004Z,1.50
2022-10-22T02:04:14.888Z,1.10
2022-10-22T02:06:46.723Z,1.10
2022-10-22T02:09:18.625Z,1.33
2022-10-22T02:11:50.799Z,1.20
2022-10-22T02:14:22.734Z,1.70
2022-10-22T02:16:54.583Z,1.20
2022-10-22T02:19:26.707Z,1.10
2022-10-22T02:21:58.496Z,0.97
2022-10-22T02:24:30.480Z,0.73
2022-10-22T02:27:02.254Z,1.10
2022-10-22T02:29:34.111Z,1.50
2022-10-22T02:32:05.867Z,1.37
2022-10-22T02:34:37.719Z,0.83
2022-10-22T02:37:09.510Z,1.00
2022-10-22T02:39:41.867Z,1.33
2022-10-22T02:42:13.698Z,1.37
2022-10-22T02:44:45.520Z,2.00
2022-10-22T02:47:17.353Z,1.43
2022-10-22T02:49:49.162Z,1.00
2022-10-22T02:52:20.985Z,0.93
2022-10-22T02:54:52.800Z,1.60
2022-10-22T02:57:24.620Z,1.40
2022-10-22T02:59:56.473Z,0.83
2022-10-22T03:02:28.265Z,1.33
2022-10-22T03:05:00.030Z,0.87
2022-10-22T03:07:31.837Z,1.03
2022-10-22T03:10:03.617Z,0.73
2022-10-22T03:12:35.443Z,1.43
2022-10-22T03:15:07.276Z,1.27
2022-10-22T03:17:39.349Z,0.90
2022-10-22T03:20:11.427Z,1.17
2022-10-22T03:22:43.211Z,1.40
2022-10-22T03:25:15.045Z,1.17
2022-10-22T03:27:46.828Z,0.87
2022-10-22T03:30:18.653Z,0.90
2022-10-22T03:32:50.431Z,1.03
2022-10-22T03:35:22.251Z,1.07
2022-10-22T03:37:54.061Z,1.00
2022-10-22T03:40:25.933Z,0.83
2022-10-22T03:42:57.814Z,1.00
2022-10-22T03:45:29.647Z,0.90
2022-10-22T03:48:01.399Z,0.80
2022-10-22T03:50:33.349Z,0.80
2022-10-22T03:53:05.197Z,1.50
2022-10-22T03:55:37.192Z,1.33
2022-10-22T03:58:09.133Z,2.30
2022-10-22T04:00:40.909Z,1.40
2022-10-22T04:03:12.671Z,1.20
2022-10-22T04:05:44.466Z,0.90
2022-10-22T04:08:16.335Z,0.97
2022-10-22T04:10:48.132Z,1.07
2022-10-22T04:13:19.906Z,1.00
2022-10-22T04:15:51.733Z,1.07
2022-10-22T04:18:23.640Z,0.80
2022-10-22T04:20:55.457Z,1.10
2022-10-22T04:23:27.301Z,0.70
2022-10-22T04:25:59.108Z,1.40
2022-10-22T04:28:30.928Z,1.20
2022-10-22T04:31:02.704Z,1.57
2022-10-22T04:33:34.485Z,0.80
2022-10-22T04:36:06.343Z,1.03
2022-10-22T04:38:38.157Z,0.90
2022-10-22T04:41:10.067Z,1.00
2022-10-22T04:43:41.905Z,0.90
2022-10-22T04:46:13.739Z,0.70
2022-10-22T04:48:45.537Z,0.80
2022-10-22T04:51:17.504Z,1.23
2022-10-22T04:53:49.370Z,0.90
2022-10-22T04:56:21.102Z,1.93
2022-10-22T04:58:52.982Z,0.73
2022-10-22T05:01:24.905Z,1.23
2022-10-22T05:03:56.685Z,0.90
2022-10-22T05:06:28.476Z,1.23
2022-10-22T05:09:00.317Z,0.80
2022-10-22T05:11:32.144Z,0.80
2022-10-22T05:14:03.981Z,0.80
2022-10-22T05:16:35.924Z,0.80
2022-10-22T05:19:07.922Z,1.30
2022-10-22T05:21:39.761Z,1.20
2022-10-22T05:24:12.023Z,0.80
2022-10-22T05:26:44.075Z,0.97
2022-10-22T05:29:15.872Z,1.37
2022-10-22T05:31:47.718Z,1.10
2022-10-22T05:34:19.545Z,1.57
2022-10-22T05:36:51.419Z,0.93
2022-10-22T05:39:23.190Z,1.20
2022-10-22T05:41:55.054Z,0.60
2022-10-22T05:44:26.889Z,2.40
2022-10-22T05:47:00.984Z,0.90
2022-10-22T05:49:32.788Z,1.00
2022-10-22T05:52:04.617Z,0.90
2022-10-22T05:54:36.449Z,0.83
2022-10-22T05:57:08.269Z,1.13
2022-10-22T05:59:40.164Z,0.80
2022-10-22T06:02:12.016Z,0.90
2022-10-22T06:04:43.875Z,1.27
2022-10-22T06:07:15.714Z,1.40
2022-10-22T06:09:47.479Z,0.70
2022-10-22T06:12:19.324Z,0.80
2022-10-22T06:14:51.176Z,1.20
2022-10-22T06:17:22.955Z,1.27
2022-10-22T06:19:54.755Z,0.97
2022-10-22T06:22:27.955Z,1.20
2022-10-22T06:24:59.861Z,1.27
2022-10-22T06:27:31.817Z,0.97
2022-10-22T06:30:03.700Z,1.07
2022-10-22T06:32:35.444Z,1.00
2022-10-22T06:35:07.356Z,0.90
2022-10-22T06:37:40.167Z,1.60
2022-10-22T06:40:12.159Z,0.80
2022-10-22T06:42:44.039Z,0.80
2022-10-22T06:45:15.788Z,1.13
2022-10-22T06:47:47.857Z,1.20
2022-10-22T06:50:19.641Z,0.83
2022-10-22T06:52:51.489Z,0.83
2022-10-22T06:55:23.531Z,1.90
2022-10-22T06:57:55.348Z,0.70
2022-10-22T07:00:27.161Z,0.97
2022-10-22T07:02:59.902Z,1.00
2022-10-22T07:05:31.807Z,0.80
2022-10-22T07:08:03.641Z,0.93
2022-10-22T07:10:35.575Z,1.07
2022-10-22T07:13:07.362Z,0.90
2022-10-22T07:15:39.138Z,1.40
2022-10-22T07:18:11.227Z,0.70
2022-10-22T07:20:43.565Z,1.20
2022-10-22T07:23:15.387Z,0.80
2022-10-22T07:25:47.235Z,0.90
2022-10-22T07:28:19.242Z,1.97
2022-10-22T07:30:51.133Z,1.00
2022-10-22T07:33:23.102Z,2.10
2022-10-22T07:35:55.156Z,0.80
2022-10-22T07:38:26.988Z,1.47
2022-10-22T07:40:58.779Z,1.47
2022-10-22T07:43:30.576Z,1.00
2022-10-22T07:46:02.384Z,1.87
2022-10-22T07:48:34.281Z,0.80
2022-10-22T07:51:06.199Z,1.00
2022-10-22T07:53:38.045Z,0.67
2022-10-22T07:56:09.838Z,1.27
2022-10-22T07:58:41.690Z,0.90
2022-10-22T08:01:13.514Z,1.30
2022-10-22T08:03:45.299Z,0.63
2022-10-22T08:06:17.096Z,0.90
2022-10-22T08:08:48.956Z,0.53
2022-10-22T08:11:20.995Z,1.00
2022-10-22T08:13:52.764Z,0.60
2022-10-22T08:16:24.705Z,0.90
2022-10-22T08:18:56.503Z,0.97
2022-10-22T08:21:28.313Z,0.70
2022-10-22T08:24:00.193Z,1.00
2022-10-22T08:26:32.215Z,1.00
2022-10-22T08:29:04.075Z,0.80
2022-10-22T08:31:35.936Z,0.60
2022-10-22T08:34:07.825Z,0.83
2022-10-22T08:36:39.697Z,1.00
2022-10-22T08:39:11.511Z,0.70
2022-10-22T08:41:43.315Z,0.80
2022-10-22T08:44:15.167Z,1.43
2022-10-22T08:46:46.993Z,1.73
2022-10-22T08:49:18.903Z,0.70
2022-10-22T08:51:50.727Z,0.70
2022-10-22T08:54:22.625Z,0.93
2022-10-22T08:56:54.473Z,0.60
2022-10-22T08:59:26.310Z,0.80
2022-10-22T09:01:58.302Z,1.83
2022-10-22T09:04:30.131Z,0.93
2022-10-22T09:07:02.034Z,1.70
2022-10-22T09:09:33.842Z,1.37
2022-10-22T09:12:05.638Z,0.97
2022-10-22T09:14:37.488Z,1.27
2022-10-22T09:17:09.995Z,3.00
2022-10-22T09:19:41.963Z,1.27
2022-10-22T09:22:13.714Z,0.80
2022-10-22T09:24:45.545Z,0.73
2022-10-22T09:27:17.355Z,0.40
2022-10-22T09:29:49.291Z,0.60
2022-10-22T09:32:22.177Z,1.60
2022-10-22T09:34:54.700Z,1.43
2022-10-22T09:37:26.525Z,0.60
2022-10-22T09:39:58.389Z,1.77
2022-10-22T09:42:30.439Z,0.90
2022-10-22T09:45:02.230Z,0.90
2022-10-22T09:47:42.657Z,0.80
2022-10-22T09:50:07.488Z,0.93
2022-10-22T09:52:39.556Z,0.60
2022-10-22T09:55:11.780Z,0.80
2022-10-22T09:57:44.567Z,0.87
2022-10-22T10:00:16.626Z,1.00
2022-10-22T10:02:48.483Z,0.70
2022-10-22T10:05:20.369Z,0.60
2022-10-22T10:07:52.167Z,0.60
2022-10-22T10:10:23.969Z,1.03
2022-10-22T10:12:55.761Z,0.70
2022-10-22T10:15:27.575Z,0.70
2022-10-22T10:17:59.483Z,0.50
2022-10-22T10:20:31.423Z,0.70
2022-10-22T10:23:03.271Z,0.53
2022-10-22T10:25:35.258Z,1.10
2022-10-22T10:28:06.991Z,0.33
2022-10-22T10:30:38.845Z,1.10
2022-10-22T10:33:10.736Z,0.70
2022-10-22T10:35:42.573Z,0.97
2022-10-22T10:38:14.334Z,0.50
2022-10-22T10:40:46.147Z,0.73
2022-10-22T10:43:18.019Z,0.57
2022-10-22T10:45:54.858Z,0.57
2022-10-22T10:48:23.289Z,0.40
2022-10-22T10:50:55.147Z,1.43
2022-10-22T10:53:27.069Z,0.67
2022-10-22T10:55:58.868Z,0.70
2022-10-22T10:58:30.663Z,0.60
2022-10-22T11:01:02.452Z,0.50
2022-10-22T11:03:34.256Z,0.53
2022-10-22T11:06:06.364Z,1.73
2022-10-22T11:08:38.223Z,2.07
2022-10-22T11:11:10.245Z,1.10
2022-10-22T11:13:42.033Z,1.47
2022-10-22T11:16:14.001Z,0.90
2022-10-22T11:18:45.810Z,1.17
2022-10-22T11:21:17.695Z,0.87
2022-10-22T11:23:49.499Z,0.83
2022-10-22T11:26:21.436Z,0.70
2022-10-22T11:28:53.318Z,1.20
2022-10-22T11:31:25.208Z,1.13
2022-10-22T11:34:04.759Z,0.57
2022-10-22T11:39:02.338Z,0.60
2022-10-22T11:41:34.162Z,0.50
2022-10-22T11:44:06.184Z,0.80
2022-10-22T11:46:38.094Z,0.70
2022-10-22T11:49:09.916Z,0.93
2022-10-22T11:51:41.723Z,0.60
2022-10-22T11:54:13.815Z,0.80
2022-10-22T11:56:45.640Z,0.90
2022-10-22T11:59:17.501Z,0.60
2022-10-22T12:01:49.355Z,0.50
2022-10-22T12:04:21.254Z,0.80
2022-10-22T12:06:55.333Z,0.50
2022-10-22T12:09:27.274Z,0.90
2022-10-22T12:11:59.363Z,0.63
2022-10-22T12:14:31.442Z,0.70
2022-10-22T12:17:03.293Z,0.70
2022-10-22T12:19:35.260Z,1.00
2022-10-22T12:22:07.022Z,0.90
2022-10-22T12:24:38.985Z,0.60
2022-10-22T12:27:12.452Z,0.70
2022-10-22T12:29:44.216Z,1.13
2022-10-22T12:32:16.198Z,0.87
2022-10-22T12:34:48.024Z,0.70
2022-10-22T12:37:19.814Z,0.70
2022-10-22T12:39:51.829Z,0.40
2022-10-22T12:42:23.650Z,1.07
2022-10-22T12:44:55.482Z,0.60
2022-10-22T12:47:27.268Z,2.53
2022-10-22T12:49:59.102Z,1.80
2022-10-22T12:52:31.286Z,0.70
2022-10-22T12:55:03.097Z,1.43
2022-10-22T12:57:35.041Z,0.97
2022-10-22T13:00:06.919Z,1.67
2022-10-22T13:02:39.513Z,0.70
2022-10-22T13:05:11.729Z,1.00
2022-10-22T13:07:43.646Z,0.70
2022-10-22T13:10:15.553Z,0.50
2022-10-22T13:12:47.542Z,0.70
2022-10-22T13:15:19.399Z,1.37
2022-10-22T13:17:51.193Z,0.80
2022-10-22T13:20:23.019Z,0.80
2022-10-22T13:22:54.813Z,0.77
2022-10-22T13:25:26.613Z,1.10
2022-10-22T13:27:58.446Z,1.30
2022-10-22T13:30:30.288Z,0.57
2022-10-22T13:33:02.086Z,0.60
2022-10-22T13:35:33.987Z,0.60
2022-10-22T13:38:05.821Z,1.10
2022-10-22T13:40:37.643Z,0.73
2022-10-22T13:43:09.458Z,1.30
2022-10-22T13:45:41.268Z,0.97
2022-10-22T13:48:13.121Z,0.97
2022-10-22T13:50:44.890Z,1.37
2022-10-22T13:53:18.753Z,1.67
2022-10-22T13:55:50.352Z,0.63
2022-10-22T13:58:22.101Z,1.03
2022-10-22T14:00:54.021Z,0.80
2022-10-22T14:03:25.957Z,1.60
2022-10-22T14:05:57.792Z,1.40
2022-10-22T14:08:29.610Z,0.70
2022-10-22T14:11:01.428Z,0.63
2022-10-22T14:13:33.231Z,0.77
2022-10-22T14:16:05.130Z,1.10
2022-10-22T14:18:36.924Z,0.97
2022-10-22T14:21:08.730Z,2.50
2022-10-22T14:23:40.549Z,1.43
2022-10-22T14:26:12.504Z,0.70
2022-10-22T14:29:08.029Z,0.77
2022-10-22T14:31:17.698Z,0.53
2022-10-22T14:33:49.521Z,1.20
2022-10-22T14:36:23.401Z,1.07
2022-10-22T14:38:55.355Z,0.80
2022-10-22T14:41:27.116Z,1.40
2022-10-22T14:43:58.949Z,0.83
2022-10-22T14:46:30.785Z,1.10
2022-10-22T14:49:02.623Z,0.80
2022-10-22T14:51:34.600Z,0.73
2022-10-22T14:54:06.413Z,0.90
2022-10-22T14:56:38.326Z,1.30
2022-10-22T14:59:10.065Z,0.53
2022-10-22T15:01:41.878Z,0.50
2022-10-22T15:04:13.803Z,1.23
2022-10-22T15:06:45.635Z,1.60
2022-10-22T15:09:17.493Z,0.70
2022-10-22T15:11:49.469Z,0.90
2022-10-22T15:14:21.250Z,1.93
2022-10-22T15:16:53.106Z,0.80
2022-10-22T15:19:24.894Z,0.70
2022-10-22T15:21:56.896Z,1.20
2022-10-22T15:24:28.824Z,0.90
2022-10-22T15:27:00.653Z,0.53
2022-10-22T15:29:32.445Z,0.60
2022-10-22T15:32:04.268Z,0.50
2022-10-22T15:34:36.149Z,0.73
2022-10-22T15:37:08.365Z,0.90
2022-10-22T15:39:40.277Z,1.77
2022-10-22T15:42:12.077Z,0.40
2022-10-22T15:44:43.927Z,0.93
2022-10-22T15:47:15.722Z,0.87
2022-10-22T15:49:47.714Z,0.77
2022-10-22T15:52:19.928Z,0.90
2022-10-22T15:54:52.048Z,0.70
2022-10-22T15:57:23.904Z,1.00
2022-10-22T15:59:55.874Z,0.90
2022-10-22T16:02:27.605Z,0.53
2022-10-22T16:04:59.421Z,0.83
2022-10-22T16:07:31.194Z,0.70
2022-10-22T16:10:03.020Z,0.80
2022-10-22T16:12:34.984Z,0.73
2022-10-22T16:15:06.815Z,0.60
2022-10-22T16:17:38.649Z,0.87
2022-10-22T16:20:10.497Z,1.07
2022-10-22T16:22:42.663Z,0.70
2022-10-22T16:25:14.750Z,0.80
2022-10-22T16:27:46.514Z,1.33
2022-10-22T16:30:18.349Z,0.87
2022-10-22T16:32:50.222Z,0.93
2022-10-22T16:35:21.980Z,0.90
2022-10-22T16:37:53.835Z,0.60
2022-10-22T16:40:25.685Z,0.60
2022-10-22T16:42:57.526Z,0.80
2022-10-22T16:45:29.501Z,0.70
2022-10-22T16:48:01.361Z,0.80
2022-10-22T16:50:33.172Z,0.70
2022-10-22T16:53:04.968Z,0.97
2022-10-22T16:55:36.781Z,0.67
2022-10-22T16:58:08.574Z,0.67
2022-10-22T17:00:40.928Z,1.33
2022-10-22T17:03:12.900Z,0.77
2022-10-22T17:05:44.723Z,1.10
2022-10-22T17:08:16.523Z,2.43
2022-10-22T17:10:48.502Z,1.40
2022-10-22T17:13:20.394Z,1.00
2022-10-22T17:15:52.247Z,1.00
2022-10-22T17:18:24.204Z,1.37
2022-10-22T17:20:55.982Z,1.53
2022-10-22T17:23:27.964Z,1.03
2022-10-22T17:25:59.742Z,1.13
2022-10-22T17:28:31.621Z,1.23
2022-10-22T17:31:03.522Z,1.30
2022-10-22T17:33:35.369Z,1.13
2022-10-22T17:36:07.243Z,1.20
2022-10-22T17:38:39.048Z,1.07
2022-10-22T17:41:14.599Z,1.43
2022-10-22T17:46:16.202Z,1.30
2022-10-22T17:48:47.977Z,1.70
2022-10-22T17:51:21.124Z,1.33
2022-10-22T17:53:52.989Z,1.40
2022-10-22T17:56:24.865Z,1.40
2022-10-22T17:58:56.864Z,1.60
2022-10-22T18:01:28.667Z,1.47
2022-10-22T18:04:00.523Z,1.80
2022-10-22T18:06:32.409Z,1.40
2022-10-22T18:09:04.207Z,2.53
2022-10-22T18:11:36.003Z,1.67
2022-10-22T18:14:07.798Z,2.10
2022-10-22T18:16:39.755Z,1.20
2022-10-22T18:19:11.520Z,2.07
2022-10-22T18:21:43.595Z,2.23
2022-10-22T18:24:15.541Z,1.63
2022-10-22T18:26:47.398Z,1.70
2022-10-22T18:29:19.750Z,2.30
2022-10-22T18:31:51.584Z,2.40
2022-10-22T18:34:24.085Z,2.07
2022-10-22T18:36:56.099Z,1.63
2022-10-22T18:39:27.895Z,2.10
2022-10-22T18:41:59.706Z,1.87
2022-10-22T18:44:31.502Z,1.80
2022-10-22T18:47:03.341Z,2.47
2022-10-22T18:49:35.189Z,3.07
2022-10-22T18:52:06.966Z,2.80
2022-10-22T18:54:38.782Z,4.00
2022-10-22T18:57:10.628Z,3.60
2022-10-22T18:59:42.428Z,3.97
2022-10-22T19:02:14.300Z,3.03
2022-10-22T19:04:46.146Z,3.10
2022-10-22T19:07:18.047Z,5.03
2022-10-22T19:09:49.818Z,3.47
2022-10-22T19:12:21.694Z,3.53
2022-10-22T19:14:53.532Z,2.80
2022-10-22T19:17:25.373Z,3.00
2022-10-22T19:19:57.179Z,2.60
2022-10-22T19:22:28.977Z,1.97
2022-10-22T19:25:00.828Z,3.17
2022-10-22T19:27:32.694Z,2.57
2022-10-22T19:30:04.506Z,3.30
2022-10-22T19:32:36.436Z,2.30
2022-10-22T19:35:08.272Z,3.53
2022-10-22T19:37:40.052Z,2.33
2022-10-22T19:40:12.044Z,2.43
2022-10-22T19:42:44.224Z,2.67
2022-10-22T19:45:16.668Z,2.27
2022-10-22T19:47:48.449Z,2.63
2022-10-22T19:50:20.335Z,2.93
2022-10-22T19:52:52.210Z,2.83
2022-10-22T19:55:24.180Z,2.53
2022-10-22T19:57:56.011Z,2.00
2022-10-22T20:00:28.585Z,2.37
2022-10-22T20:03:00.513Z,2.50
2022-10-22T20:05:32.382Z,2.17
2022-10-22T20:08:04.263Z,2.30
2022-10-22T20:10:36.141Z,3.40
2022-10-22T20:13:07.964Z,2.73
2022-10-22T20:15:39.818Z,2.43
2022-10-22T20:18:11.631Z,1.93
2022-10-22T20:20:43.562Z,2.23
2022-10-22T20:23:17.501Z,2.23
2022-10-22T20:25:49.363Z,2.13
2022-10-22T20:28:21.311Z,2.63
2022-10-22T20:30:53.189Z,2.47
2022-10-22T20:33:24.971Z,2.70
2022-10-22T20:35:56.850Z,2.50
2022-10-22T20:38:28.949Z,2.40
2022-10-22T20:41:01.097Z,2.70
2022-10-22T20:43:33.458Z,2.83
2022-10-22T20:46:06.314Z,2.50
2022-10-22T20:48:39.869Z,2.20
2022-10-22T20:51:12.044Z,2.03
2022-10-22T20:53:44.512Z,2.83
2022-10-22T20:56:16.268Z,3.17
2022-10-22T20:58:48.148Z,2.27
2022-10-22T21:01:20.567Z,2.10
2022-10-22T21:03:52.533Z,2.70
2022-10-22T21:06:24.379Z,2.40
2022-10-22T21:08:56.212Z,2.50
2022-10-22T21:11:28.180Z,2.20
2022-10-22T21:13:59.978Z,3.03
2022-10-22T21:16:31.795Z,2.33
2022-10-22T21:19:03.655Z,2.30
2022-10-22T21:21:35.587Z,2.80
2022-10-22T21:24:07.468Z,2.20
2022-10-22T21:26:39.306Z,2.43
2022-10-22T21:29:11.157Z,2.70
2022-10-22T21:31:43.206Z,2.60
2022-10-22T21:34:15.009Z,2.33
2022-10-22T21:39:18.610Z,2.47
2022-10-22T21:41:50.426Z,2.57
2022-10-22T21:44:22.269Z,2.13
2022-10-22T21:46:54.070Z,2.30
2022-10-22T21:49:26.094Z,2.47
2022-10-22T21:51:58.002Z,3.13
2022-10-22T21:54:29.912Z,2.63
2022-10-22T21:57:01.719Z,3.13
2022-10-22T21:59:33.661Z,2.47
2022-10-22T22:02:06.078Z,3.23
2022-10-22T22:04:38.212Z,3.50
2022-10-22T22:07:10.288Z,2.80
2022-10-22T22:09:42.137Z,3.07
2022-10-22T22:12:13.921Z,2.73
2022-10-22T22:14:45.747Z,2.53
2022-10-22T22:17:17.572Z,2.50
2022-10-22T22:19:49.770Z,3.13
2022-10-22T22:22:21.652Z,2.50
2022-10-22T22:24:53.480Z,2.50
2022-10-22T22:27:25.342Z,2.37
2022-10-22T22:29:57.235Z,2.70
2022-10-22T22:32:29.070Z,3.00
2022-10-22T22:35:00.852Z,3.50
2022-10-22T22:37:32.664Z,3.43
2022-10-22T22:40:04.483Z,2.67
2022-10-22T22:42:36.380Z,2.90
2022-10-22T22:45:08.188Z,2.67
2022-10-22T22:47:40.357Z,3.00
2022-10-22T22:50:12.633Z,3.00
2022-10-22T22:52:44.613Z,3.87
2022-10-22T22:55:16.671Z,3.07
2022-10-22T22:57:48.468Z,2.57
2022-10-22T23:00:20.389Z,2.93
2022-10-22T23:02:52.176Z,3.30
2022-10-22T23:05:24.009Z,2.47
2022-10-22T23:07:55.811Z,2.77
2022-10-22T23:10:27.712Z,2.70
2022-10-22T23:12:59.493Z,2.93
2022-10-22T23:15:31.898Z,2.97
2022-10-22T23:18:03.724Z,2.83
2022-10-22T23:20:35.568Z,2.77
2022-10-22T23:23:07.513Z,2.73
2022-10-22T23:25:39.332Z,2.57
2022-10-22T23:28:11.166Z,2.17
2022-10-22T23:30:42.999Z,3.20
2022-10-22T23:33:14.837Z,3.00
2022-10-22T23:35:46.656Z,2.30
2022-10-22T23:38:18.524Z,2.93
2022-10-22T23:40:50.370Z,2.90
2022-10-22T23:43:22.204Z,2.97
2022-10-22T23:45:54.094Z,2.87
2022-10-22T23:48:25.925Z,2.33
2022-10-22T23:50:57.773Z,2.40
2022-10-22T23:53:29.798Z,2.53
2022-10-22T23:56:01.672Z,2.33
2022-10-22T23:58:33.601Z,3.00
